createdAt,value
2022-08-22T00:08:43.698Z,22.70
2022-08-22T00:19:03.516Z,21.80
2022-08-22T00:29:12.097Z,20.70
2022-08-22T00:39:25.451Z,19.90
2022-08-22T00:49:45.249Z,21.00
2022-08-22T01:00:16.771Z,21.00
2022-08-22T01:10:56.590Z,20.80
2022-08-22T01:21:38.553Z,21.40
2022-08-22T01:32:13.330Z,23.30
2022-08-22T01:42:58.048Z,23.10
2022-08-22T01:53:07.172Z,23.00
2022-08-22T02:03:34.549Z,23.50
2022-08-22T02:13:48.336Z,24.50
2022-08-22T02:24:09.028Z,24.70
2022-08-22T02:34:40.832Z,25.90
2022-08-22T02:45:04.751Z,29.50
2022-08-22T02:55:45.230Z,25.20
2022-08-22T03:05:48.150Z,28.40
2022-08-22T03:16:07.009Z,28.00
2022-08-22T03:26:40.934Z,27.60
2022-08-22T03:37:01.891Z,30.90
2022-08-22T03:47:44.810Z,32.50
2022-08-22T03:58:27.315Z,33.50
2022-08-22T04:08:56.510Z,34.20
2022-08-22T04:19:34.135Z,34.80
2022-08-22T04:30:01.731Z,33.40
2022-08-22T04:40:47.672Z,35.10
2022-08-22T04:51:03.710Z,36.00
2022-08-22T05:01:11.853Z,35.50
2022-08-22T05:11:14.694Z,35.50
2022-08-22T05:21:20.512Z,37.30
2022-08-22T05:31:38.033Z,35.90
2022-08-22T05:41:43.255Z,37.80
2022-08-22T05:52:19.798Z,36.90
2022-08-22T06:02:28.142Z,37.80
2022-08-22T06:12:40.060Z,38.50
2022-08-22T06:22:57.716Z,35.70
2022-08-22T06:33:12.313Z,35.80
2022-08-22T06:43:15.896Z,33.50
2022-08-22T06:53:28.198Z,32.20
2022-08-22T07:03:37.981Z,31.00
2022-08-22T07:13:47.720Z,26.90
2022-08-22T07:23:50.740Z,24.30
2022-08-22T07:34:08.460Z,20.20
2022-08-22T07:44:29.438Z,17.70
2022-08-22T07:54:58.565Z,16.40
2022-08-22T08:05:02.419Z,14.00
2022-08-22T08:15:07.398Z,12.40
2022-08-22T08:25:16.519Z,13.20
2022-08-22T08:35:28.418Z,11.90
2022-08-22T08:45:56.390Z,10.70
2022-08-22T08:56:34.157Z,9.70
2022-08-22T09:06:56.621Z,9.20
2022-08-22T09:17:25.740Z,7.80
2022-08-22T09:28:01.876Z,8.30
2022-08-22T09:38:29.085Z,7.20
2022-08-22T09:48:48.505Z,6.90
2022-08-22T09:59:09.810Z,5.50
2022-08-22T10:09:36.603Z,6.90
2022-08-22T10:19:42.876Z,7.40
2022-08-22T10:29:53.820Z,6.40
2022-08-22T10:40:09.169Z,5.00
2022-08-22T10:50:11.716Z,6.10
2022-08-22T11:00:46.225Z,4.40
2022-08-22T11:10:58.866Z,2.40
2022-08-22T11:21:09.304Z,3.10
2022-08-22T11:31:31.759Z,2.60
2022-08-22T11:41:58.524Z,1.00
2022-08-22T11:52:10.805Z,2.50
2022-08-22T12:02:28.605Z,2.90
2022-08-22T12:12:42.352Z,3.10
2022-08-22T12:23:14.845Z,1.60
2022-08-22T12:33:48.368Z,1.00
2022-08-22T12:44:19.789Z,3.60
2022-08-22T12:54:42.999Z,2.90
2022-08-22T13:05:19.798Z,3.20
2022-08-22T13:15:35.977Z,2.20
2022-08-22T13:26:01.566Z,2.50
2022-08-22T13:36:10.965Z,1.00
2022-08-22T13:46:14.083Z,1.00
2022-08-22T13:56:33.146Z,1.00
2022-08-22T14:06:49.419Z,1.00
2022-08-22T14:16:58.165Z,1.00
2022-08-22T14:27:14.964Z,1.00
2022-08-22T14:37:32.985Z,1.00
2022-08-22T14:47:55.676Z,1.00
2022-08-22T14:58:26.480Z,1.00
2022-08-22T15:08:50.043Z,1.00
2022-08-22T15:18:52.340Z,1.00
2022-08-22T15:29:09.505Z,1.00
2022-08-22T15:39:32.879Z,1.00
2022-08-22T15:49:58.209Z,1.10
2022-08-22T16:00:29.659Z,1.00
2022-08-22T16:11:05.105Z,1.30
2022-08-22T16:21:19.179Z,2.40
2022-08-22T16:31:36.320Z,3.30
2022-08-22T16:41:43.923Z,2.00
2022-08-22T16:52:25.811Z,1.70
2022-08-22T17:03:04.744Z,1.40
2022-08-22T17:13:38.364Z,1.50
2022-08-22T17:24:02.181Z,1.00
2022-08-22T17:34:14.519Z,1.00
2022-08-22T17:44:45.959Z,1.00
2022-08-22T17:55:05.923Z,1.10
2022-08-22T18:05:24.926Z,2.10
2022-08-22T18:15:45.141Z,2.10
2022-08-22T18:26:01.125Z,3.90
2022-08-22T18:36:24.261Z,4.30
2022-08-22T18:46:47.218Z,5.00
2022-08-22T18:57:02.231Z,5.80
2022-08-22T19:07:22.627Z,6.90
2022-08-22T19:17:35.404Z,7.10
2022-08-22T19:27:44.166Z,7.50
2022-08-22T19:38:02.909Z,7.80
2022-08-22T19:48:14.186Z,7.50
2022-08-22T19:58:45.603Z,7.70
2022-08-22T20:09:07.082Z,7.50
2022-08-22T20:19:09.488Z,7.30
2022-08-22T20:29:12.173Z,7.40
2022-08-22T20:39:22.961Z,8.40
2022-08-22T20:49:31.304Z,8.50
2022-08-22T20:59:38.442Z,7.60
2022-08-22T21:09:58.864Z,6.30
2022-08-22T21:20:19.018Z,5.50
2022-08-22T21:30:28.060Z,6.00
2022-08-22T21:40:40.201Z,5.90
2022-08-22T21:50:43.627Z,5.80
2022-08-22T22:00:53.928Z,6.20
2022-08-22T22:11:08.632Z,6.10
2022-08-22T22:21:15.024Z,5.80
2022-08-22T22:31:20.384Z,5.70
2022-08-22T22:41:27.558Z,5.00
2022-08-22T22:51:31.381Z,5.20
2022-08-22T23:01:35.762Z,5.20
2022-08-22T23:11:38.702Z,8.70
2022-08-22T23:21:43.544Z,9.40
2022-08-22T23:31:56.318Z,9.70
2022-08-22T23:42:01.584Z,11.00
2022-08-22T23:52:03.519Z,11.80
